createdAt,value
2024-02-17T00:00:30.979Z,2.33
2024-02-17T00:02:57.799Z,3.67
2024-02-17T00:05:24.841Z,5.93
2024-02-17T00:07:52.140Z,3.92
2024-02-17T00:10:18.886Z,6.07
2024-02-17T00:12:45.930Z,6.20
2024-02-17T00:15:13.226Z,5.13
2024-02-17T00:17:40.053Z,5.10
2024-02-17T00:20:08.760Z,5.63
2024-02-17T00:22:35.706Z,2.78
2024-02-17T00:25:02.653Z,5.47
2024-02-17T00:27:29.386Z,5.05
2024-02-17T00:29:56.342Z,2.85
2024-02-17T00:32:23.187Z,4.53
2024-02-17T00:34:50.097Z,6.63
2024-02-17T00:37:16.939Z,4.82
2024-02-17T00:39:43.779Z,3.28
2024-02-17T00:42:10.800Z,4.78
2024-02-17T00:44:38.496Z,5.43
2024-02-17T00:47:05.564Z,3.80
2024-02-17T00:49:32.535Z,5.28
2024-02-17T00:51:59.577Z,3.78
2024-02-17T00:54:26.595Z,3.85
2024-02-17T00:56:53.411Z,5.95
2024-02-17T00:59:20.138Z,7.30
2024-02-17T01:01:49.014Z,6.82
2024-02-17T01:04:16.930Z,4.30
2024-02-17T01:06:43.902Z,4.45
2024-02-17T01:09:11.315Z,2.72
2024-02-17T01:11:38.247Z,4.78
2024-02-17T01:14:05.119Z,6.22
2024-02-17T01:16:31.855Z,5.10
2024-02-17T01:21:25.596Z,3.85
2024-02-17T01:23:52.511Z,4.22
2024-02-17T01:26:19.298Z,4.93
2024-02-17T01:28:46.083Z,6.75
2024-02-17T01:31:12.771Z,5.70
2024-02-17T01:33:39.592Z,7.60
2024-02-17T01:36:13.624Z,4.88
2024-02-17T01:38:40.453Z,7.00
2024-02-17T01:41:07.302Z,5.80
2024-02-17T01:43:34.052Z,4.32
2024-02-17T01:46:00.873Z,5.97
2024-02-17T01:48:27.731Z,6.13
2024-02-17T01:50:54.798Z,3.35
2024-02-17T01:53:21.829Z,6.32
2024-02-17T01:55:48.760Z,5.22
2024-02-17T01:58:15.858Z,8.20
2024-02-17T02:00:42.827Z,8.40
2024-02-17T02:03:09.802Z,5.85
2024-02-17T02:05:36.701Z,8.00
2024-02-17T02:08:03.631Z,5.53
2024-02-17T02:10:30.559Z,6.10
2024-02-17T02:12:57.397Z,7.68
2024-02-17T02:15:32.900Z,9.88
2024-02-17T02:18:03.970Z,8.98
2024-02-17T02:20:30.932Z,5.72
2024-02-17T02:22:57.784Z,9.43
2024-02-17T02:25:26.300Z,8.68
2024-02-17T02:27:54.419Z,8.20
2024-02-17T02:30:22.210Z,6.20
2024-02-17T02:32:49.877Z,6.80
2024-02-17T02:35:16.902Z,5.93
2024-02-17T02:37:43.798Z,9.98
2024-02-17T02:40:10.864Z,9.95
2024-02-17T02:42:37.739Z,7.85
2024-02-17T02:45:04.989Z,6.22
2024-02-17T02:47:31.814Z,7.68
2024-02-17T02:50:00.618Z,9.35
2024-02-17T02:52:27.662Z,10.55
2024-02-17T02:54:54.480Z,8.80
2024-02-17T02:57:21.630Z,10.65
2024-02-17T02:59:48.542Z,10.32
2024-02-17T03:02:15.404Z,10.82
2024-02-17T03:04:43.095Z,10.38
2024-02-17T03:07:09.939Z,9.65
2024-02-17T03:09:36.985Z,9.30
2024-02-17T03:12:04.533Z,1.90
2024-02-17T03:14:31.573Z,5.90
2024-02-17T03:16:58.452Z,5.65
2024-02-17T03:19:25.203Z,6.85
2024-02-17T03:21:52.141Z,3.80
2024-02-17T03:24:19.051Z,6.63
2024-02-17T03:26:45.896Z,5.50
2024-02-17T03:29:12.702Z,7.22
2024-02-17T03:31:39.575Z,4.85
2024-02-17T03:34:07.491Z,7.07
2024-02-17T03:36:35.043Z,4.70
2024-02-17T03:39:10.521Z,5.05
2024-02-17T03:41:37.500Z,2.25
2024-02-17T03:44:04.946Z,4.15
2024-02-17T03:46:32.009Z,3.63
2024-02-17T03:48:58.897Z,1.98
2024-02-17T03:51:25.954Z,4.05
2024-02-17T03:53:52.736Z,2.38
2024-02-17T03:56:19.673Z,2.10
2024-02-17T03:58:46.535Z,2.35
2024-02-17T04:01:13.423Z,2.38
2024-02-17T04:03:40.365Z,2.05
2024-02-17T04:06:07.569Z,3.53
2024-02-17T04:08:34.531Z,4.13
2024-02-17T04:11:02.396Z,2.67
2024-02-17T04:13:29.348Z,2.80
2024-02-17T04:15:56.245Z,1.38
2024-02-17T04:18:23.275Z,2.50
2024-02-17T04:20:50.103Z,3.15
2024-02-17T04:23:16.892Z,1.50
2024-02-17T04:25:43.716Z,2.28
2024-02-17T04:28:10.538Z,2.25
2024-02-17T04:30:37.427Z,2.00
2024-02-17T04:33:05.025Z,2.63
2024-02-17T04:35:32.154Z,1.35
2024-02-17T04:37:59.133Z,1.90
2024-02-17T04:40:25.962Z,1.73
2024-02-17T04:42:55.316Z,2.78
2024-02-17T04:45:22.326Z,3.15
2024-02-17T04:47:49.153Z,1.55
2024-02-17T04:50:16.101Z,1.55
2024-02-17T04:52:42.791Z,1.30
2024-02-17T04:55:10.332Z,1.65
2024-02-17T04:57:37.328Z,3.05
2024-02-17T05:00:07.285Z,1.85
2024-02-17T05:02:37.441Z,2.75
2024-02-17T05:05:04.882Z,2.20
2024-02-17T05:07:31.834Z,1.35
2024-02-17T05:09:58.877Z,2.13
2024-02-17T05:12:25.898Z,1.83
2024-02-17T05:14:52.933Z,1.55
2024-02-17T05:17:19.702Z,2.70
2024-02-17T05:19:47.183Z,0.70
2024-02-17T05:22:14.253Z,1.40
2024-02-17T05:24:44.059Z,2.67
2024-02-17T05:27:11.048Z,1.08
2024-02-17T05:29:42.017Z,1.80
2024-02-17T05:32:09.413Z,2.10
2024-02-17T05:34:37.783Z,1.65
2024-02-17T05:37:05.929Z,0.93
2024-02-17T05:39:33.630Z,1.08
2024-02-17T05:42:01.290Z,1.73
2024-02-17T05:44:28.817Z,1.67
2024-02-17T05:46:55.960Z,1.33
2024-02-17T05:49:24.104Z,1.13
2024-02-17T05:51:51.681Z,1.23
2024-02-17T05:54:19.697Z,1.20
2024-02-17T05:56:47.082Z,2.03
2024-02-17T05:59:16.780Z,1.40
2024-02-17T06:01:44.176Z,1.02
2024-02-17T06:04:11.188Z,1.85
2024-02-17T06:06:38.520Z,0.75
2024-02-17T06:09:05.546Z,0.95
2024-02-17T06:11:32.838Z,1.55
2024-02-17T06:13:59.636Z,0.90
2024-02-17T06:19:15.858Z,1.13
2024-02-17T06:21:42.887Z,0.45
2024-02-17T06:24:10.696Z,0.77
2024-02-17T06:26:37.640Z,0.98
2024-02-17T06:29:05.191Z,1.02
2024-02-17T06:31:34.643Z,1.02
2024-02-17T06:34:04.628Z,0.77
2024-02-17T06:36:31.822Z,0.50
2024-02-17T06:38:58.577Z,0.45
2024-02-17T06:43:52.166Z,0.43
2024-02-17T06:46:19.118Z,0.65
2024-02-17T06:48:50.795Z,0.38
2024-02-17T06:51:18.650Z,0.50
2024-02-17T06:53:45.607Z,0.40
2024-02-17T06:56:12.551Z,0.98
2024-02-17T06:58:39.267Z,0.57
2024-02-17T07:01:06.396Z,0.13
2024-02-17T07:03:33.536Z,0.43
2024-02-17T07:06:00.752Z,0.90
2024-02-17T07:08:28.203Z,0.30
2024-02-17T07:10:55.143Z,0.20
2024-02-17T07:13:21.967Z,0.30
2024-02-17T07:15:48.781Z,0.80
2024-02-17T07:18:17.753Z,0.55
2024-02-17T07:20:46.428Z,0.98
2024-02-17T07:23:14.827Z,0.63
2024-02-17T07:25:43.132Z,0.50
2024-02-17T07:28:14.269Z,1.58
2024-02-17T07:30:42.807Z,0.43
2024-02-17T07:33:11.772Z,0.50
2024-02-17T07:35:43.483Z,0.88
2024-02-17T07:38:11.170Z,0.38
2024-02-17T07:40:41.111Z,1.00
2024-02-17T07:43:08.366Z,0.47
2024-02-17T07:45:35.483Z,0.43
2024-02-17T07:48:02.508Z,0.60
2024-02-17T07:50:29.464Z,0.70
2024-02-17T07:52:56.367Z,0.52
2024-02-17T07:55:23.290Z,0.45
2024-02-17T07:57:50.888Z,0.43
2024-02-17T08:00:18.506Z,0.63
2024-02-17T08:02:47.490Z,0.68
2024-02-17T08:05:15.006Z,1.10
2024-02-17T08:07:42.517Z,0.70
2024-02-17T08:10:12.168Z,0.50
2024-02-17T08:12:39.516Z,1.38
2024-02-17T08:15:07.961Z,0.28
2024-02-17T08:17:35.917Z,1.20
2024-02-17T08:20:05.328Z,0.60
2024-02-17T08:22:33.706Z,0.28
2024-02-17T08:25:02.167Z,0.57
2024-02-17T08:27:29.325Z,0.80
2024-02-17T08:29:56.207Z,0.82
2024-02-17T08:32:23.045Z,0.70
2024-02-17T08:34:51.037Z,0.60
2024-02-17T08:37:18.024Z,0.52
2024-02-17T08:39:49.561Z,0.88
2024-02-17T08:42:17.075Z,0.35
2024-02-17T08:44:43.905Z,0.80
2024-02-17T08:47:12.190Z,1.00
2024-02-17T08:49:39.255Z,0.52
2024-02-17T08:52:06.524Z,0.85
2024-02-17T08:54:33.340Z,0.80
2024-02-17T08:57:00.107Z,0.57
2024-02-17T08:59:26.889Z,0.57
2024-02-17T09:01:53.661Z,0.70
2024-02-17T09:04:20.579Z,0.98
2024-02-17T09:06:47.617Z,0.20
2024-02-17T09:09:14.544Z,1.08
2024-02-17T09:11:41.617Z,0.95
2024-02-17T09:14:08.492Z,1.92
2024-02-17T09:16:35.366Z,0.55
2024-02-17T09:19:02.191Z,0.98
2024-02-17T09:21:29.013Z,0.70
2024-02-17T09:23:56.312Z,0.75
2024-02-17T09:26:24.978Z,0.47
2024-02-17T09:28:52.130Z,0.90
2024-02-17T09:31:18.945Z,0.60
2024-02-17T09:33:46.557Z,0.80
2024-02-17T09:36:14.578Z,0.60
2024-02-17T09:38:41.457Z,0.77
2024-02-17T09:41:08.268Z,0.60
2024-02-17T09:43:35.566Z,1.30
2024-02-17T09:46:03.141Z,0.63
2024-02-17T09:48:30.308Z,0.25
2024-02-17T09:50:58.771Z,0.85
2024-02-17T09:53:25.993Z,0.93
2024-02-17T09:55:52.815Z,0.98
2024-02-17T09:58:19.642Z,0.95
2024-02-17T10:00:49.565Z,0.70
2024-02-17T10:03:19.290Z,0.70
2024-02-17T10:05:46.683Z,0.75
2024-02-17T10:08:13.982Z,0.40
2024-02-17T10:10:44.408Z,0.45
2024-02-17T10:13:22.106Z,0.32
2024-02-17T10:15:49.187Z,0.77
2024-02-17T10:18:21.035Z,0.60
2024-02-17T10:20:55.542Z,0.80
2024-02-17T10:23:26.386Z,0.57
2024-02-17T10:25:53.119Z,0.50
2024-02-17T10:28:19.957Z,0.65
2024-02-17T10:30:46.752Z,0.63
2024-02-17T10:33:16.929Z,0.68
2024-02-17T10:35:47.482Z,0.98
2024-02-17T10:38:14.371Z,1.05
2024-02-17T10:40:42.422Z,0.90
2024-02-17T10:43:09.418Z,0.52
2024-02-17T10:45:36.496Z,0.63
2024-02-17T10:48:11.281Z,0.50
2024-02-17T10:50:45.761Z,0.30
2024-02-17T10:53:27.741Z,0.43
2024-02-17T10:55:58.817Z,0.80
2024-02-17T10:58:25.722Z,0.70
2024-02-17T11:00:53.620Z,0.20
2024-02-17T11:03:24.991Z,0.50
2024-02-17T11:06:09.866Z,0.60
2024-02-17T11:08:37.224Z,0.50
2024-02-17T11:11:33.051Z,0.40
2024-02-17T11:14:00.724Z,0.80
2024-02-17T11:16:35.406Z,1.00
2024-02-17T11:19:02.680Z,0.52
2024-02-17T11:21:39.121Z,1.42
2024-02-17T11:24:10.102Z,1.05
2024-02-17T11:26:44.430Z,0.52
2024-02-17T11:29:32.650Z,0.63
2024-02-17T11:32:05.680Z,0.60
2024-02-17T11:34:53.479Z,0.40
2024-02-17T11:37:22.601Z,0.22
2024-02-17T11:39:52.246Z,0.60
2024-02-17T11:42:20.310Z,0.88
2024-02-17T11:44:53.045Z,0.70
2024-02-17T11:47:19.812Z,0.70
2024-02-17T11:49:46.833Z,1.15
2024-02-17T11:52:16.855Z,0.50
2024-02-17T11:54:53.388Z,0.52
2024-02-17T11:57:21.811Z,0.50
2024-02-17T11:59:53.258Z,0.80
2024-02-17T12:02:23.684Z,1.00
2024-02-17T12:04:54.181Z,0.50
2024-02-17T12:07:23.747Z,0.30
2024-02-17T12:09:53.064Z,0.47
2024-02-17T12:12:20.206Z,0.80
2024-02-17T12:14:53.978Z,0.57
2024-02-17T12:17:25.282Z,0.70
2024-02-17T12:19:52.533Z,0.60
2024-02-17T12:22:19.997Z,0.80
2024-02-17T12:24:46.986Z,0.55
2024-02-17T12:27:14.085Z,0.70
2024-02-17T12:29:50.400Z,0.80
2024-02-17T12:32:21.546Z,0.80
2024-02-17T12:34:48.798Z,1.00
2024-02-17T12:37:18.930Z,1.20
2024-02-17T12:39:46.617Z,0.75
2024-02-17T12:42:26.602Z,1.10
2024-02-17T12:44:55.554Z,0.98
2024-02-17T12:47:25.563Z,0.65
2024-02-17T12:49:52.604Z,0.30
2024-02-17T12:52:20.669Z,0.57
2024-02-17T12:54:47.460Z,1.40
2024-02-17T12:57:14.463Z,0.70
2024-02-17T12:59:41.789Z,0.60
2024-02-17T13:02:09.326Z,0.82
2024-02-17T13:04:37.233Z,0.85
2024-02-17T13:07:12.321Z,0.70
2024-02-17T13:09:47.824Z,1.20
2024-02-17T13:12:14.815Z,0.68
2024-02-17T13:14:45.649Z,1.05
2024-02-17T13:17:12.957Z,1.05
2024-02-17T13:19:40.461Z,1.05
2024-02-17T13:22:14.129Z,0.95
2024-02-17T13:24:42.728Z,0.57
2024-02-17T13:27:10.042Z,0.55
2024-02-17T13:29:36.971Z,0.75
2024-02-17T13:32:04.693Z,0.90
2024-02-17T13:34:33.075Z,1.25
2024-02-17T13:37:04.833Z,0.90
2024-02-17T13:39:33.626Z,0.35
2024-02-17T13:42:00.834Z,0.60
2024-02-17T13:44:27.905Z,0.65
2024-02-17T13:46:57.768Z,0.25
2024-02-17T13:49:28.864Z,0.85
2024-02-17T13:51:57.817Z,1.00
2024-02-17T13:54:25.522Z,1.00
2024-02-17T13:56:52.284Z,0.90
2024-02-17T13:59:19.544Z,0.80
2024-02-17T14:01:46.418Z,0.93
2024-02-17T14:04:16.302Z,0.98
2024-02-17T14:06:43.236Z,0.88
2024-02-17T14:09:09.995Z,0.70
2024-02-17T14:11:36.785Z,0.68
2024-02-17T14:14:03.599Z,0.80
2024-02-17T14:16:30.493Z,1.00
2024-02-17T14:18:58.029Z,0.90
2024-02-17T14:21:25.629Z,1.23
2024-02-17T14:23:53.902Z,1.25
2024-02-17T14:26:21.092Z,1.63
2024-02-17T14:28:48.953Z,1.10
2024-02-17T14:31:17.026Z,0.13
2024-02-17T14:33:45.411Z,0.80
2024-02-17T14:36:12.864Z,0.65
2024-02-17T14:38:40.196Z,1.00
2024-02-17T14:41:07.562Z,1.10
2024-02-17T14:43:36.259Z,1.08
2024-02-17T14:46:03.591Z,1.10
2024-02-17T14:48:31.255Z,1.05
2024-02-17T14:50:58.949Z,0.90
2024-02-17T14:53:25.955Z,1.20
2024-02-17T14:55:55.699Z,1.40
2024-02-17T14:58:22.518Z,1.83
2024-02-17T15:00:49.920Z,1.45
2024-02-17T15:03:16.842Z,1.20
2024-02-17T15:05:43.719Z,1.05
2024-02-17T15:08:10.665Z,1.33
2024-02-17T15:10:37.637Z,1.25
2024-02-17T15:13:06.331Z,1.25
2024-02-17T15:15:33.231Z,1.33
2024-02-17T15:18:01.656Z,1.30
2024-02-17T15:20:28.558Z,1.45
2024-02-17T15:22:55.318Z,1.70
2024-02-17T15:25:39.754Z,1.35
2024-02-17T15:28:07.259Z,1.58
2024-02-17T15:30:34.167Z,1.88
2024-02-17T15:33:04.615Z,1.60
2024-02-17T15:35:32.715Z,1.25
2024-02-17T15:38:04.971Z,1.30
2024-02-17T15:40:31.743Z,1.60
2024-02-17T15:42:58.622Z,1.40
2024-02-17T15:45:25.701Z,1.27
2024-02-17T15:47:56.971Z,1.38
2024-02-17T15:50:25.000Z,2.20
2024-02-17T15:52:52.263Z,2.10
2024-02-17T15:55:19.617Z,2.13
2024-02-17T15:57:54.270Z,2.08
2024-02-17T16:00:25.708Z,2.13
2024-02-17T16:02:53.514Z,2.33
2024-02-17T16:05:20.998Z,2.13
2024-02-17T16:07:47.790Z,2.10
2024-02-17T16:10:15.657Z,2.17
2024-02-17T16:12:50.261Z,2.63
2024-02-17T16:15:19.485Z,1.70
2024-02-17T16:17:51.569Z,2.05
2024-02-17T16:20:18.605Z,2.03
2024-02-17T16:22:48.708Z,1.58
2024-02-17T16:25:16.147Z,2.65
2024-02-17T16:27:43.245Z,3.22
2024-02-17T16:30:10.554Z,3.25
2024-02-17T16:32:37.472Z,4.10
2024-02-17T16:35:05.116Z,3.75
2024-02-17T16:37:32.050Z,3.10
2024-02-17T16:39:58.838Z,2.92
2024-02-17T16:42:27.126Z,3.55
2024-02-17T16:44:54.355Z,3.28
2024-02-17T16:47:21.381Z,3.40
2024-02-17T16:49:48.626Z,3.20
2024-02-17T16:52:15.811Z,3.40
2024-02-17T16:54:42.778Z,3.97
2024-02-17T16:57:10.548Z,4.20
2024-02-17T16:59:38.988Z,3.13
2024-02-17T17:02:06.211Z,3.40
2024-02-17T17:04:35.832Z,3.90
2024-02-17T17:07:08.817Z,3.83
2024-02-17T17:09:36.442Z,3.83
2024-02-17T17:12:08.249Z,4.32
2024-02-17T17:14:36.756Z,4.35
2024-02-17T17:17:04.421Z,7.15
2024-02-17T17:19:31.851Z,7.97
2024-02-17T17:21:58.860Z,5.38
2024-02-17T17:24:27.169Z,6.38
2024-02-17T17:26:55.228Z,5.90
2024-02-17T17:29:22.280Z,7.25
2024-02-17T17:31:49.328Z,5.22
2024-02-17T17:34:17.437Z,6.22
2024-02-17T17:36:44.749Z,6.72
2024-02-17T17:39:12.069Z,6.45
2024-02-17T17:41:39.238Z,5.07
2024-02-17T17:44:08.844Z,4.97
2024-02-17T17:46:35.669Z,6.88
2024-02-17T17:49:06.361Z,5.15
2024-02-17T17:51:36.171Z,6.50
2024-02-17T17:54:03.145Z,4.32
2024-02-17T17:56:29.955Z,5.07
2024-02-17T17:58:56.709Z,5.35
2024-02-17T18:01:24.384Z,5.10
2024-02-17T18:03:51.371Z,5.55
2024-02-17T18:06:18.365Z,5.82
2024-02-17T18:08:45.278Z,5.97
2024-02-17T18:11:12.471Z,5.28
2024-02-17T18:13:39.513Z,6.75
2024-02-17T18:16:06.804Z,5.22
2024-02-17T18:18:33.902Z,4.85
2024-02-17T18:21:00.855Z,5.55
2024-02-17T18:23:27.632Z,12.18
2024-02-17T18:25:55.695Z,5.97
2024-02-17T18:28:22.497Z,6.50
2024-02-17T18:30:49.352Z,6.82
2024-02-17T18:33:16.372Z,6.57
2024-02-17T18:35:45.485Z,6.93
2024-02-17T18:38:12.457Z,6.38
2024-02-17T18:40:40.540Z,7.95
2024-02-17T18:43:07.488Z,7.18
2024-02-17T18:45:34.578Z,7.15
2024-02-17T18:48:01.558Z,7.85
2024-02-17T18:50:28.677Z,7.53
2024-02-17T18:52:55.572Z,7.25
2024-02-17T18:55:22.285Z,8.57
2024-02-17T19:00:20.692Z,8.30
2024-02-17T19:02:47.601Z,8.18
2024-02-17T19:05:15.096Z,7.70
2024-02-17T19:07:44.322Z,8.27
2024-02-17T19:10:11.854Z,8.90
2024-02-17T19:12:38.698Z,7.72
2024-02-17T19:15:06.638Z,8.15
2024-02-17T19:17:33.474Z,8.82
2024-02-17T19:20:00.531Z,8.65
2024-02-17T19:22:28.760Z,9.35
2024-02-17T19:24:55.936Z,8.07
2024-02-17T19:27:25.635Z,10.45
2024-02-17T19:29:52.573Z,9.55
2024-02-17T19:32:19.400Z,9.23
2024-02-17T19:34:46.320Z,8.77
2024-02-17T19:37:13.469Z,8.98
2024-02-17T19:39:40.299Z,9.93
2024-02-17T19:42:08.221Z,8.38
2024-02-17T19:44:35.084Z,12.55
2024-02-17T19:47:05.422Z,8.88
2024-02-17T19:49:32.806Z,11.32
2024-02-17T19:51:59.916Z,8.25
2024-02-17T19:54:26.852Z,10.05
2024-02-17T19:56:53.646Z,9.70
2024-02-17T19:59:20.569Z,9.35
2024-02-17T20:01:47.463Z,10.05
2024-02-17T20:04:14.425Z,8.55
2024-02-17T20:06:41.346Z,8.48
2024-02-17T20:09:08.156Z,8.18
2024-02-17T20:11:35.280Z,8.65
2024-02-17T20:14:05.113Z,9.85
2024-02-17T20:16:31.969Z,8.65
2024-02-17T20:18:58.870Z,10.50
2024-02-17T20:21:25.805Z,10.13
2024-02-17T20:23:52.698Z,9.93
2024-02-17T20:26:19.506Z,11.73
2024-02-17T20:28:46.321Z,10.32
2024-02-17T20:31:13.346Z,11.30
2024-02-17T20:33:40.740Z,9.35
2024-02-17T20:36:08.214Z,10.88
2024-02-17T20:38:34.973Z,12.50
2024-02-17T20:41:01.903Z,10.68
2024-02-17T20:43:28.732Z,10.70
2024-02-17T20:45:56.255Z,10.25
2024-02-17T20:48:23.446Z,11.50
2024-02-17T20:50:53.409Z,11.20
2024-02-17T20:53:20.586Z,12.43
2024-02-17T20:55:47.897Z,9.70
2024-02-17T20:58:15.541Z,9.93
2024-02-17T21:00:42.546Z,10.25
2024-02-17T21:03:12.956Z,11.95
2024-02-17T21:05:43.206Z,11.48
2024-02-17T21:08:10.966Z,11.60
2024-02-17T21:10:37.836Z,12.85
2024-02-17T21:13:04.863Z,12.30
2024-02-17T21:15:31.697Z,11.57
2024-02-17T21:17:58.500Z,11.45
2024-02-17T21:20:25.259Z,11.57
2024-02-17T21:22:52.191Z,10.57
2024-02-17T21:25:21.852Z,12.00
2024-02-17T21:27:51.285Z,11.25
2024-02-17T21:30:18.952Z,14.70
2024-02-17T21:32:48.162Z,13.23
2024-02-17T21:35:17.367Z,13.75
2024-02-17T21:37:44.176Z,12.70
2024-02-17T21:40:11.619Z,13.20
2024-02-17T21:42:38.732Z,11.65
2024-02-17T21:45:06.934Z,14.77
2024-02-17T21:47:34.557Z,11.02
2024-02-17T21:50:01.415Z,12.23
2024-02-17T21:52:28.783Z,13.15
2024-02-17T21:54:55.649Z,13.18
2024-02-17T21:57:22.679Z,13.85
2024-02-17T21:59:50.010Z,14.98
2024-02-17T22:02:16.872Z,12.98
2024-02-17T22:04:44.124Z,14.20
2024-02-17T22:07:11.214Z,16.38
2024-02-17T22:09:37.998Z,14.38
2024-02-17T22:12:05.400Z,14.90
2024-02-17T22:14:32.197Z,14.88
2024-02-17T22:16:59.270Z,14.88
2024-02-17T22:19:26.589Z,15.95
2024-02-17T22:21:53.840Z,13.73
2024-02-17T22:24:22.109Z,13.93
2024-02-17T22:26:49.549Z,18.70
2024-02-17T22:29:16.405Z,16.08
2024-02-17T22:31:43.201Z,16.98
2024-02-17T22:34:11.833Z,14.70
2024-02-17T22:36:40.138Z,15.95
2024-02-17T22:39:06.957Z,14.98
2024-02-17T22:41:33.822Z,14.52
2024-02-17T22:44:00.984Z,15.40
2024-02-17T22:46:27.801Z,14.52
2024-02-17T22:48:54.861Z,16.48
2024-02-17T22:51:21.823Z,21.88
2024-02-17T22:53:49.138Z,15.15
2024-02-17T22:56:17.242Z,16.15
2024-02-17T22:58:44.179Z,15.60
2024-02-17T23:01:11.086Z,18.05
2024-02-17T23:03:39.035Z,18.40
2024-02-17T23:06:06.343Z,15.73
2024-02-17T23:08:33.209Z,18.33
2024-02-17T23:11:00.059Z,16.02
2024-02-17T23:13:26.890Z,19.02
2024-02-17T23:15:53.782Z,18.95
2024-02-17T23:18:20.797Z,16.23
2024-02-17T23:20:47.636Z,21.92
2024-02-17T23:23:14.968Z,17.48
2024-02-17T23:25:42.543Z,22.40
2024-02-17T23:28:09.773Z,28.52
2024-02-17T23:30:36.901Z,18.30
2024-02-17T23:33:04.158Z,24.45
2024-02-17T23:35:31.014Z,23.95
2024-02-17T23:37:58.056Z,22.27
2024-02-17T23:40:25.697Z,27.58
2024-02-17T23:42:52.691Z,23.02
2024-02-17T23:45:19.793Z,24.02
2024-02-17T23:47:46.743Z,24.90
2024-02-17T23:50:13.619Z,25.20
2024-02-17T23:52:40.496Z,26.30
2024-02-17T23:55:09.774Z,21.85
2024-02-17T23:57:36.988Z,25.60
